createdAt,value
2022-08-10T00:02:35.618Z,18
2022-08-10T00:08:25.035Z,20
2022-08-10T00:14:01.575Z,26
2022-08-10T00:20:09.634Z,20
2022-08-10T00:25:42.364Z,20
2022-08-10T00:31:17.246Z,24
2022-08-10T00:36:52.023Z,22
2022-08-10T00:42:27.522Z,16
2022-08-10T00:48:02.298Z,20
2022-08-10T00:53:37.309Z,26
2022-08-10T00:59:12.277Z,20
2022-08-10T01:05:03.798Z,20
2022-08-10T01:10:38.780Z,25
2022-08-10T01:16:36.537Z,18
2022-08-10T01:22:09.089Z,31
2022-08-10T01:27:44.009Z,26
2022-08-10T01:34:03.147Z,25
2022-08-10T01:39:39.209Z,18
2022-08-10T01:45:18.483Z,24
2022-08-10T01:51:01.396Z,24
2022-08-10T01:56:36.246Z,20
2022-08-10T02:02:11.162Z,22
2022-08-10T02:07:45.934Z,16
2022-08-10T02:13:20.904Z,24
2022-08-10T02:19:18.474Z,24
2022-08-10T02:24:51.088Z,22
2022-08-10T02:30:26.051Z,18
2022-08-10T02:36:01.797Z,22
2022-08-10T02:45:33.493Z,24
2022-08-10T02:51:10.009Z,18
2022-08-10T02:56:45.558Z,24
2022-08-10T03:02:21.272Z,23
2022-08-10T03:07:56.388Z,22
2022-08-10T03:13:32.293Z,26
2022-08-10T03:20:41.097Z,26
2022-08-10T03:26:21.348Z,34
2022-08-10T03:31:56.233Z,20
2022-08-10T03:37:40.413Z,26
2022-08-10T03:43:15.213Z,24
2022-08-10T03:48:59.476Z,24
2022-08-10T03:54:36.864Z,24
2022-08-10T04:00:13.386Z,22
2022-08-10T04:05:48.013Z,20
2022-08-10T04:11:22.976Z,32
2022-08-10T04:18:07.197Z,18
2022-08-10T04:23:40.288Z,20
2022-08-10T04:29:15.566Z,24
2022-08-10T04:34:50.656Z,20
2022-08-10T04:40:31.888Z,24
2022-08-10T04:47:00.719Z,16
2022-08-10T04:52:37.419Z,12
2022-08-10T04:58:12.021Z,12
2022-08-10T05:04:40.183Z,30
2022-08-10T05:10:15.650Z,24
2022-08-10T05:15:50.458Z,14
2022-08-10T05:22:05.736Z,24
2022-08-10T05:27:40.693Z,30
2022-08-10T05:33:16.833Z,29
2022-08-10T05:38:51.793Z,22
2022-08-10T05:44:26.859Z,30
2022-08-10T05:50:01.569Z,34
2022-08-10T05:55:36.810Z,20
2022-08-10T06:01:12.485Z,26
2022-08-10T06:06:47.398Z,32
2022-08-10T06:12:57.358Z,10
2022-08-10T06:19:00.364Z,26
2022-08-10T06:24:33.063Z,28
2022-08-10T06:30:21.862Z,42
2022-08-10T06:35:56.784Z,32
2022-08-10T06:42:19.139Z,34
2022-08-10T06:47:55.236Z,33
2022-08-10T06:53:56.053Z,18
2022-08-10T06:59:32.224Z,40
2022-08-10T07:05:07.108Z,52
2022-08-10T07:10:47.373Z,32
2022-08-10T07:16:44.057Z,44
2022-08-10T07:24:03.303Z,34
2022-08-10T07:29:55.727Z,54
2022-08-10T07:35:44.515Z,72
2022-08-10T07:41:19.972Z,44
2022-08-10T07:46:55.042Z,36
2022-08-10T07:52:30.987Z,39
2022-08-10T07:58:07.261Z,30
2022-08-10T08:03:42.499Z,18
2022-08-10T08:09:17.381Z,22
2022-08-10T08:14:53.295Z,30
2022-08-10T08:20:30.585Z,12
2022-08-10T08:26:06.630Z,18
2022-08-10T08:32:05.447Z,26
2022-08-10T08:38:35.973Z,25
2022-08-10T08:44:35.177Z,16
2022-08-10T08:50:11.149Z,22
2022-08-10T08:56:08.293Z,26
2022-08-10T09:01:43.888Z,22
2022-08-10T09:08:04.344Z,14
2022-08-10T09:13:40.019Z,24
2022-08-10T09:19:37.853Z,18
2022-08-10T09:25:11.171Z,16
2022-08-10T09:31:26.184Z,20
2022-08-10T09:37:01.670Z,18
2022-08-10T09:42:38.562Z,20
2022-08-10T09:48:13.520Z,14
2022-08-10T09:53:53.650Z,22
2022-08-10T10:00:03.809Z,18
2022-08-10T10:05:38.884Z,14
2022-08-10T10:11:24.998Z,22
2022-08-10T10:17:21.825Z,22
2022-08-10T10:22:54.597Z,20
2022-08-10T10:29:59.979Z,20
2022-08-10T10:35:37.903Z,24
2022-08-10T10:41:15.519Z,26
2022-08-10T10:46:52.787Z,28
2022-08-10T10:52:27.895Z,28
2022-08-10T10:58:04.999Z,18
2022-08-10T11:03:40.511Z,16
2022-08-10T11:10:47.709Z,10
2022-08-10T11:17:01.220Z,16
2022-08-10T11:22:37.770Z,16
2022-08-10T11:28:13.167Z,10
2022-08-10T11:35:13.548Z,16
2022-08-10T11:40:49.193Z,14
2022-08-10T11:46:29.822Z,10
2022-08-10T11:52:04.897Z,14
2022-08-10T11:58:01.474Z,22
2022-08-10T12:03:36.899Z,14
2022-08-10T12:10:14.962Z,8
2022-08-10T12:15:50.517Z,16
2022-08-10T12:21:24.931Z,18
2022-08-10T12:26:59.830Z,10
2022-08-10T12:32:37.302Z,15
2022-08-10T12:38:13.039Z,14
2022-08-10T12:44:10.770Z,16
2022-08-10T12:50:35.236Z,16
2022-08-10T12:56:10.268Z,16
2022-08-10T13:02:12.002Z,16
2022-08-10T13:08:28.920Z,18
2022-08-10T13:14:04.081Z,18
2022-08-10T13:20:14.592Z,22
2022-08-10T13:25:51.581Z,17
2022-08-10T13:32:12.033Z,16
2022-08-10T13:37:47.269Z,10
2022-08-10T13:43:22.234Z,12
2022-08-10T13:49:00.581Z,14
2022-08-10T13:54:35.635Z,8
2022-08-10T14:00:39.927Z,12
2022-08-10T14:06:15.192Z,8
2022-08-10T14:11:50.289Z,4
2022-08-10T14:17:47.230Z,15
2022-08-10T14:23:21.166Z,14
2022-08-10T14:28:56.016Z,12
2022-08-10T14:36:25.387Z,16
2022-08-10T14:42:28.335Z,4
2022-08-10T14:48:11.604Z,0
2022-08-10T14:53:46.562Z,16
2022-08-10T15:00:43.426Z,14
2022-08-10T15:06:19.582Z,6
2022-08-10T15:12:28.233Z,8
2022-08-10T15:18:27.500Z,12
2022-08-10T15:24:11.259Z,14
2022-08-10T15:29:59.148Z,12
2022-08-10T15:35:38.783Z,4
2022-08-10T15:42:00.179Z,16
2022-08-10T15:47:47.898Z,12
2022-08-10T15:53:28.882Z,6
2022-08-10T15:59:09.167Z,14
2022-08-10T16:04:48.275Z,6
2022-08-10T16:10:39.314Z,12
2022-08-10T16:16:36.341Z,12
2022-08-10T16:22:38.460Z,10
2022-08-10T16:28:25.242Z,8
2022-08-10T16:34:00.094Z,16
2022-08-10T16:40:03.010Z,18
2022-08-10T16:45:39.506Z,16
2022-08-10T16:51:18.487Z,14
2022-08-10T16:56:53.408Z,12
2022-08-10T17:02:29.248Z,10
2022-08-10T17:08:04.292Z,10
2022-08-10T17:13:39.138Z,12
2022-08-10T17:19:35.621Z,14
2022-08-10T17:25:08.450Z,18
2022-08-10T17:30:59.308Z,6
2022-08-10T17:36:34.811Z,8
2022-08-10T17:42:09.434Z,12
2022-08-10T17:47:44.102Z,16
2022-08-10T17:53:19.923Z,12
2022-08-10T17:58:54.701Z,12
2022-08-10T18:04:43.428Z,16
2022-08-10T18:10:18.295Z,8
2022-08-10T18:15:52.944Z,14
2022-08-10T18:21:31.718Z,10
2022-08-10T18:27:06.401Z,6
2022-08-10T18:32:40.950Z,6
2022-08-10T18:38:16.369Z,6
2022-08-10T18:44:13.516Z,10
2022-08-10T18:49:48.676Z,6
2022-08-10T18:56:10.525Z,4
2022-08-10T19:01:45.646Z,12
2022-08-10T19:07:20.430Z,8
2022-08-10T19:12:55.591Z,10
2022-08-10T19:18:52.128Z,16
2022-08-10T19:24:24.858Z,6
2022-08-10T19:30:14.370Z,12
2022-08-10T19:36:06.305Z,4
2022-08-10T19:41:46.069Z,8
2022-08-10T19:47:21.772Z,12
2022-08-10T19:52:56.606Z,10
2022-08-10T19:58:31.583Z,2
2022-08-10T20:04:06.363Z,8
2022-08-10T20:09:42.273Z,13
2022-08-10T20:15:17.025Z,10
2022-08-10T20:20:52.838Z,12
2022-08-10T20:26:27.647Z,10
2022-08-10T20:32:12.495Z,18
2022-08-10T20:38:07.341Z,10
2022-08-10T20:43:43.190Z,8
2022-08-10T20:49:18.948Z,2
2022-08-10T20:54:53.712Z,16
2022-08-10T21:00:28.340Z,4
2022-08-10T21:06:04.215Z,8
2022-08-10T21:11:39.061Z,4
2022-08-10T21:17:39.103Z,14
2022-08-10T21:23:12.585Z,14
2022-08-10T21:28:51.122Z,10
2022-08-10T21:34:33.527Z,8
2022-08-10T21:40:38.973Z,10
2022-08-10T21:46:18.822Z,16
2022-08-10T21:52:07.017Z,12
2022-08-10T21:57:45.756Z,20
2022-08-10T22:03:21.293Z,12
2022-08-10T22:08:56.231Z,16
2022-08-10T22:14:34.774Z,8
2022-08-10T22:20:09.937Z,10
2022-08-10T22:25:45.094Z,12
2022-08-10T22:31:50.055Z,22
2022-08-10T22:37:26.137Z,14
2022-08-10T22:43:14.421Z,12
2022-08-10T22:49:11.960Z,8
2022-08-10T22:54:46.851Z,8
2022-08-10T23:00:32.373Z,12
2022-08-10T23:06:07.289Z,10
2022-08-10T23:11:42.161Z,10
2022-08-10T23:18:03.305Z,15
2022-08-10T23:23:36.097Z,14
2022-08-10T23:29:13.137Z,13
2022-08-10T23:36:36.438Z,16
2022-08-10T23:42:11.569Z,10
2022-08-10T23:47:46.346Z,15
2022-08-10T23:53:25.991Z,12
2022-08-10T23:59:00.843Z,12
